Time;durP1;ratioP1;P1;durP2;ratioP2;P2;SDS_P1;SDS_P2;PMS_P1;PMS_P2;Temp;Humidity;BMP_temperature;BMP_pressure;BME280_temperature;BME280_humidity;BME280_pressure;Samples;Min_cycle;Max_cycle;Signal;HPM_P1;HPM_P2
2022/03/09 00:00:32;;;;;;;;;;;2.10;99.90;;;;;;5045392;28;19951;-55
2022/03/09 00:02:57;;;;;;;;;;;2.10;99.90;;;;;;5041042;28;20291;-56
2022/03/09 00:05:23;;;;;;;;;;;2.10;99.90;;;;;;5043551;28;19924;-56
2022/03/09 00:07:48;;;;;;;;;;;2.20;99.90;;;;;;5042872;28;19925;-54
2022/03/09 00:10:14;;;;;;;;;;;2.10;99.90;;;;;;5042143;28;19921;-56
2022/03/09 00:12:39;;;;;;;;;;;2.10;99.90;;;;;;5043380;28;20485;-56
2022/03/09 00:15:05;;;;;;;;;;;2.00;99.90;;;;;;5049278;28;20019;-55
2022/03/09 00:17:31;;;;;;;;;;;2.00;99.90;;;;;;5042707;28;19927;-56
2022/03/09 00:19:56;;;;;;;;;;;2.00;99.90;;;;;;5042218;28;20390;-57
2022/03/09 00:22:21;;;;;;;;;;;1.90;99.90;;;;;;5045354;28;20302;-56
2022/03/09 00:24:47;;;;;;;;;;;1.90;99.90;;;;;;5043798;28;19927;-56
2022/03/09 00:27:12;;;;;;;;;;;1.90;99.90;;;;;;5042396;28;19936;-56
2022/03/09 00:29:38;;;;;;;;;;;1.80;99.90;;;;;;5042149;28;20047;-54
2022/03/09 00:32:04;;;;;;;;;;;1.80;99.90;;;;;;5042306;28;19920;-56
2022/03/09 00:34:30;;;;;;;;;;;1.90;99.90;;;;;;5044183;28;19944;-56
2022/03/09 00:36:55;;;;;;;;;;;1.80;99.90;;;;;;5042281;28;19920;-56
2022/03/09 00:39:20;;;;;;;;;;;1.80;99.90;;;;;;5043143;28;19921;-56
2022/03/09 00:41:46;;;;;;;;;;;1.70;99.90;;;;;;5043445;28;19921;-56
2022/03/09 00:44:11;;;;;;;;;;;1.70;99.90;;;;;;5041051;28;20023;-56
2022/03/09 00:46:37;;;;;;;;;;;1.70;99.90;;;;;;5042667;28;19920;-55
2022/03/09 00:49:03;;;;;;;;;;;1.60;99.90;;;;;;5043925;28;19929;-56
2022/03/09 00:51:28;;;;;;;;;;;1.50;99.90;;;;;;5043552;28;19963;-56
2022/03/09 00:53:53;;;;;;;;;;;1.50;99.90;;;;;;5042336;28;19935;-56
2022/03/09 00:56:19;;;;;;;;;;;1.40;99.90;;;;;;5040814;28;20282;-54
2022/03/09 00:58:44;;;;;;;;;;;1.40;99.90;;;;;;5041697;28;19925;-56
2022/03/09 01:01:10;;;;;;;;;;;1.40;99.90;;;;;;5038718;28;19924;-54
2022/03/09 01:03:36;;;;;;;;;;;1.40;99.90;;;;;;5041803;28;19920;-57
2022/03/09 01:06:01;;;;;;;;;;;1.40;99.90;;;;;;5040567;28;19921;-56
2022/03/09 01:08:27;;;;;;;;;;;1.30;99.90;;;;;;5040859;28;19983;-56
2022/03/09 01:10:52;;;;;;;;;;;1.30;99.90;;;;;;5042459;28;19960;-56
2022/03/09 01:13:18;;;;;;;;;;;1.30;99.90;;;;;;5042202;28;20283;-56
2022/03/09 01:15:43;;;;;;;;;;;1.30;99.90;;;;;;5040054;28;20355;-55
2022/03/09 01:18:09;;;;;;;;;;;1.30;99.90;;;;;;5040088;28;19928;-56
2022/03/09 01:20:35;;;;;;;;;;;1.20;99.90;;;;;;5041275;28;20477;-56
2022/03/09 01:23:00;;;;;;;;;;;1.20;99.90;;;;;;5041043;28;19927;-56
2022/03/09 01:25:26;;;;;;;;;;;1.10;99.90;;;;;;5040475;28;21312;-57
2022/03/09 01:27:51;;;;;;;;;;;1.10;99.90;;;;;;5040800;28;20269;-56
2022/03/09 01:30:17;;;;;;;;;;;1.00;99.90;;;;;;5038617;28;20130;-56
2022/03/09 01:32:42;;;;;;;;;;;1.00;99.90;;;;;;5039492;28;20382;-58
2022/03/09 01:35:08;;;;;;;;;;;1.00;99.90;;;;;;5045051;28;19939;-56
2022/03/09 01:37:34;;;;;;;;;;;0.90;99.90;;;;;;5040007;28;19928;-57
2022/03/09 01:39:59;;;;;;;;;;;0.90;99.90;;;;;;5042146;28;20282;-56
2022/03/09 01:42:25;;;;;;;;;;;0.90;99.90;;;;;;5040658;28;20366;-56
2022/03/09 01:44:50;;;;;;;;;;;0.90;99.90;;;;;;5042088;28;20369;-57
2022/03/09 01:47:16;;;;;;;;;;;0.90;99.90;;;;;;5041728;28;19928;-56
2022/03/09 01:49:42;;;;;;;;;;;0.90;99.90;;;;;;5042397;28;19921;-55
2022/03/09 01:52:08;;;;;;;;;;;0.90;99.90;;;;;;5047359;28;19967;-56
2022/03/09 01:54:33;;;;;;;;;;;0.90;99.90;;;;;;5027831;28;19971;-56
2022/03/09 01:56:59;;;;;;;;;;;0.80;99.90;;;;;;5022971;28;20278;-56
2022/03/09 01:59:25;;;;;;;;;;;0.70;99.90;;;;;;5046501;28;19949;-55
2022/03/09 02:01:51;;;;;;;;;;;0.70;99.90;;;;;;5046955;28;19931;-57
2022/03/09 02:04:17;;;;;;;;;;;0.70;99.90;;;;;;5044307;28;20204;-56
2022/03/09 02:06:43;;;;;;;;;;;0.60;99.90;;;;;;5043594;28;20026;-56
2022/03/09 02:11:53;;;;;;;;;;;0.50;99.90;;;;;;5045377;28;19921;-57
2022/03/09 02:14:28;;;;;;;;;;;0.50;99.90;;;;;;5042131;28;19929;-56
2022/03/09 02:16:54;;;;;;;;;;;0.50;99.90;;;;;;5038794;28;20266;-56
2022/03/09 02:19:19;;;;;;;;;;;0.50;99.90;;;;;;5038934;28;19986;-55
2022/03/09 02:21:45;;;;;;;;;;;0.50;99.90;;;;;;5042105;28;19932;-56
2022/03/09 02:24:11;;;;;;;;;;;0.50;99.90;;;;;;5042840;28;19928;-56
2022/03/09 02:26:36;;;;;;;;;;;0.50;99.90;;;;;;5038553;28;20535;-57
2022/03/09 02:29:02;;;;;;;;;;;0.50;99.90;;;;;;5038004;28;19947;-56
2022/03/09 02:31:27;;;;;;;;;;;0.60;99.90;;;;;;5041070;28;20334;-57
2022/03/09 02:33:53;;;;;;;;;;;0.50;99.90;;;;;;5037836;28;19920;-57
2022/03/09 02:36:20;;;;;;;;;;;0.50;99.90;;;;;;5041392;28;19920;-57
2022/03/09 02:38:45;;;;;;;;;;;0.40;99.90;;;;;;5038146;28;20995;-56
2022/03/09 02:41:11;;;;;;;;;;;0.40;99.90;;;;;;5039371;28;19927;-55
2022/03/09 02:43:36;;;;;;;;;;;0.40;99.90;;;;;;5039779;28;20386;-57
2022/03/09 02:46:02;;;;;;;;;;;0.50;99.90;;;;;;5039493;28;20439;-55
2022/03/09 02:48:27;;;;;;;;;;;0.50;99.90;;;;;;5042004;28;20020;-56
2022/03/09 02:50:53;;;;;;;;;;;0.50;99.90;;;;;;5070315;22;20343;-49
2022/03/09 02:53:18;;;;;;;;;;;0.50;99.90;;;;;;5027181;28;19932;-49
2022/03/09 02:55:44;;;;;;;;;;;0.40;99.90;;;;;;5038432;28;20114;-49
2022/03/09 02:58:09;;;;;;;;;;;0.40;99.90;;;;;;5033460;28;19940;-51
2022/03/09 03:00:35;;;;;;;;;;;0.40;99.90;;;;;;5029006;28;20011;-49
2022/03/09 03:03:00;;;;;;;;;;;0.40;99.90;;;;;;5023628;28;19921;-49
2022/03/09 03:05:26;;;;;;;;;;;0.40;99.90;;;;;;5030769;28;20260;-49
2022/03/09 03:07:51;;;;;;;;;;;0.40;99.90;;;;;;5030760;28;19925;-49
2022/03/09 03:10:17;;;;;;;;;;;0.40;99.90;;;;;;5032424;28;20024;-49
2022/03/09 03:12:42;;;;;;;;;;;0.40;99.90;;;;;;5035143;28;20002;-51
2022/03/09 03:15:08;;;;;;;;;;;0.40;99.90;;;;;;5035579;28;19942;-53
2022/03/09 03:17:37;;;;;;;;;;;0.30;99.90;;;;;;5038596;28;19959;-52
2022/03/09 03:20:03;;;;;;;;;;;0.30;99.90;;;;;;5037599;28;19935;-50
2022/03/09 03:22:28;;;;;;;;;;;0.30;99.90;;;;;;5039922;28;20363;-48
2022/03/09 03:24:54;;;;;;;;;;;0.30;99.90;;;;;;5041545;28;19929;-50
2022/03/09 03:27:19;;;;;;;;;;;0.20;99.90;;;;;;5040867;28;19990;-49
2022/03/09 03:29:45;;;;;;;;;;;0.30;99.90;;;;;;5042578;28;20019;-50
2022/03/09 03:32:11;;;;;;;;;;;0.30;99.90;;;;;;5030784;28;20350;-48
2022/03/09 03:34:36;;;;;;;;;;;0.30;99.90;;;;;;5031827;28;19921;-49
2022/03/09 03:37:02;;;;;;;;;;;0.30;99.90;;;;;;5022760;28;20482;-50
2022/03/09 03:39:27;;;;;;;;;;;0.30;99.90;;;;;;5036159;28;20272;-48
2022/03/09 03:41:53;;;;;;;;;;;0.20;99.90;;;;;;5023549;28;20027;-49
2022/03/09 03:44:18;;;;;;;;;;;0.20;99.90;;;;;;5041034;28;19927;-49
2022/03/09 03:46:44;;;;;;;;;;;0.20;99.90;;;;;;5026453;28;20023;-48
2022/03/09 03:49:10;;;;;;;;;;;0.20;99.90;;;;;;5003376;28;19925;-49
2022/03/09 03:51:35;;;;;;;;;;;0.10;99.90;;;;;;5055367;28;19921;-49
2022/03/09 03:54:01;;;;;;;;;;;0.20;99.90;;;;;;5064082;28;19928;-49
2022/03/09 03:56:26;;;;;;;;;;;0.20;99.90;;;;;;5065245;28;20159;-49
2022/03/09 03:58:52;;;;;;;;;;;0.10;99.90;;;;;;5063875;28;19924;-50
2022/03/09 04:01:20;;;;;;;;;;;0.10;99.90;;;;;;5066033;28;20285;-48
2022/03/09 04:03:45;;;;;;;;;;;0.10;99.90;;;;;;5063840;28;19929;-48
2022/03/09 04:06:11;;;;;;;;;;;0.10;99.90;;;;;;5065059;28;19927;-48
2022/03/09 04:08:36;;;;;;;;;;;0.10;99.90;;;;;;5070107;28;20305;-49
2022/03/09 04:11:01;;;;;;;;;;;0.10;99.90;;;;;;5077260;28;19967;-49
2022/03/09 04:13:27;;;;;;;;;;;0.10;99.90;;;;;;5073940;28;19928;-48
2022/03/09 04:15:52;;;;;;;;;;;0.10;99.90;;;;;;5072970;28;19920;-50
2022/03/09 04:18:18;;;;;;;;;;;0.00;99.90;;;;;;5060801;28;19924;-48
2022/03/09 04:20:43;;;;;;;;;;;0.00;99.90;;;;;;5075695;28;20362;-48
2022/03/09 04:23:10;;;;;;;;;;;0.00;99.90;;;;;;5072660;28;19924;-49
2022/03/09 04:25:36;;;;;;;;;;;0.00;99.90;;;;;;5057964;28;19959;-48
2022/03/09 04:28:02;;;;;;;;;;;0.00;99.90;;;;;;5073678;28;20420;-49
2022/03/09 04:30:28;;;;;;;;;;;-0.10;99.90;;;;;;5072256;28;20011;-50
2022/03/09 04:32:53;;;;;;;;;;;-0.20;99.90;;;;;;5076811;28;20032;-50
2022/03/09 04:35:19;;;;;;;;;;;-0.10;99.90;;;;;;5083727;28;19935;-50
2022/03/09 04:37:44;;;;;;;;;;;-0.10;99.90;;;;;;5073651;28;20332;-47
2022/03/09 04:40:10;;;;;;;;;;;-0.10;99.90;;;;;;5073916;28;19924;-47
2022/03/09 04:42:36;;;;;;;;;;;-0.10;99.90;;;;;;5067801;28;19945;-47
2022/03/09 04:45:01;;;;;;;;;;;-0.10;99.90;;;;;;5072131;28;19920;-47
2022/03/09 04:47:27;;;;;;;;;;;-0.20;99.90;;;;;;5070268;28;19928;-47
2022/03/09 04:49:52;;;;;;;;;;;-0.20;99.90;;;;;;5076823;28;19920;-47
2022/03/09 04:52:18;;;;;;;;;;;-0.30;99.90;;;;;;5072916;28;19920;-46
2022/03/09 04:54:44;;;;;;;;;;;-0.30;99.90;;;;;;5072943;28;20423;-47
2022/03/09 04:57:09;;;;;;;;;;;-0.30;99.90;;;;;;5070898;28;20010;-48
2022/03/09 04:59:35;;;;;;;;;;;-0.40;99.90;;;;;;5033629;28;19935;-46
2022/03/09 05:02:00;;;;;;;;;;;-0.40;99.90;;;;;;5074224;28;19942;-47
2022/03/09 05:04:26;;;;;;;;;;;-0.40;99.90;;;;;;5073394;28;20007;-46
2022/03/09 05:06:51;;;;;;;;;;;-0.40;99.90;;;;;;5074018;28;19974;-47
2022/03/09 05:09:17;;;;;;;;;;;-0.40;99.90;;;;;;5076015;28;20032;-46
2022/03/09 05:11:42;;;;;;;;;;;-0.40;99.90;;;;;;5072083;28;19924;-50
2022/03/09 05:14:08;;;;;;;;;;;-0.40;99.90;;;;;;5070302;28;19928;-48
2022/03/09 05:16:33;;;;;;;;;;;-0.30;99.90;;;;;;5084716;28;20317;-48
2022/03/09 05:18:59;;;;;;;;;;;-0.40;99.90;;;;;;5075909;28;20374;-47
2022/03/09 05:21:25;;;;;;;;;;;-0.40;99.90;;;;;;5079381;28;19980;-47
2022/03/09 05:23:50;;;;;;;;;;;-0.40;99.90;;;;;;5053953;28;19943;-49
2022/03/09 05:26:16;;;;;;;;;;;-0.40;99.90;;;;;;5068096;28;20345;-47
2022/03/09 05:28:41;;;;;;;;;;;-0.50;99.90;;;;;;5075741;28;19920;-50
2022/03/09 05:31:07;;;;;;;;;;;-0.50;99.90;;;;;;5058154;28;19926;-46
2022/03/09 05:33:32;;;;;;;;;;;-0.50;99.90;;;;;;5073970;28;19966;-47
2022/03/09 05:35:58;;;;;;;;;;;-0.50;99.90;;;;;;5083045;28;19927;-51
2022/03/09 05:38:23;;;;;;;;;;;-0.50;99.90;;;;;;5061702;28;19923;-50
2022/03/09 05:40:49;;;;;;;;;;;-0.50;99.90;;;;;;5054013;28;19921;-47
2022/03/09 05:43:14;;;;;;;;;;;-0.50;99.90;;;;;;5027835;28;21204;-48
2022/03/09 05:45:40;;;;;;;;;;;-0.50;99.90;;;;;;5061910;28;19931;-49
2022/03/09 05:48:05;;;;;;;;;;;-0.50;99.90;;;;;;5061964;28;19920;-47
2022/03/09 05:50:31;;;;;;;;;;;-0.50;99.90;;;;;;5062145;28;20014;-47
2022/03/09 05:52:56;;;;;;;;;;;-0.60;99.90;;;;;;5063814;28;20002;-48
2022/03/09 05:55:22;;;;;;;;;;;-0.60;99.90;;;;;;5063438;28;19974;-48
2022/03/09 05:57:47;;;;;;;;;;;-0.70;99.90;;;;;;5046878;28;20354;-47
2022/03/09 06:00:13;;;;;;;;;;;-0.60;99.90;;;;;;5062107;28;19927;-47
2022/03/09 06:02:39;;;;;;;;;;;-0.60;99.90;;;;;;5043707;28;19921;-48
2022/03/09 06:05:05;;;;;;;;;;;-0.60;99.90;;;;;;5044073;28;19963;-47
2022/03/09 06:07:32;;;;;;;;;;;-0.60;99.90;;;;;;5061664;28;20361;-47
2022/03/09 06:09:58;;;;;;;;;;;-0.60;99.90;;;;;;5063454;28;19935;-48
2022/03/09 06:12:23;;;;;;;;;;;-0.60;99.90;;;;;;5064259;28;20206;-47
2022/03/09 06:14:49;;;;;;;;;;;-0.60;99.90;;;;;;5043558;28;20370;-49
2022/03/09 06:17:14;;;;;;;;;;;-0.60;99.90;;;;;;5044425;28;20016;-49
2022/03/09 06:19:40;;;;;;;;;;;-0.60;99.90;;;;;;5062802;28;19924;-48
2022/03/09 06:22:05;;;;;;;;;;;-0.60;99.90;;;;;;5062242;28;19921;-48
2022/03/09 06:24:31;;;;;;;;;;;-0.60;99.90;;;;;;5044132;28;20295;-49
2022/03/09 06:26:56;;;;;;;;;;;-0.50;99.90;;;;;;5064308;28;19943;-48
2022/03/09 06:29:21;;;;;;;;;;;-0.50;99.90;;;;;;5061456;28;20654;-48
2022/03/09 06:31:47;;;;;;;;;;;-0.40;99.90;;;;;;5064801;28;19924;-48
2022/03/09 06:34:13;;;;;;;;;;;-0.40;99.90;;;;;;5063621;28;19924;-48
2022/03/09 06:36:43;;;;;;;;;;;-0.40;99.90;;;;;;5067413;28;20018;-50
2022/03/09 06:39:09;;;;;;;;;;;-0.40;99.90;;;;;;5080801;28;19981;-48
2022/03/09 06:41:34;;;;;;;;;;;-0.30;99.90;;;;;;5077162;28;19944;-49
2022/03/09 06:44:00;;;;;;;;;;;-0.20;99.90;;;;;;5073290;28;20234;-49
2022/03/09 06:46:25;;;;;;;;;;;-0.10;99.90;;;;;;5082288;28;20285;-48
2022/03/09 06:48:51;;;;;;;;;;;-0.10;99.90;;;;;;5074055;28;19920;-49
2022/03/09 06:51:16;;;;;;;;;;;0.00;99.90;;;;;;5071727;28;19928;-48
2022/03/09 06:53:44;;;;;;;;;;;0.10;99.90;;;;;;5068370;28;19942;-48
2022/03/09 06:56:09;;;;;;;;;;;0.20;99.90;;;;;;5069540;28;19920;-48
2022/03/09 06:58:34;;;;;;;;;;;0.40;99.90;;;;;;5069627;28;19966;-49
2022/03/09 07:01:00;;;;;;;;;;;0.60;99.90;;;;;;5066082;28;20416;-48
2022/03/09 07:03:25;;;;;;;;;;;1.60;99.90;;;;;;5066247;28;19927;-48
2022/03/09 07:05:52;;;;;;;;;;;3.30;99.90;;;;;;5069377;28;19928;-49
2022/03/09 07:08:18;;;;;;;;;;;3.40;99.90;;;;;;5066962;28;19955;-49
2022/03/09 07:10:43;;;;;;;;;;;3.70;99.90;;;;;;5050584;28;20391;-48
2022/03/09 07:13:09;;;;;;;;;;;3.50;99.90;;;;;;5076387;28;20010;-48
2022/03/09 07:15:34;;;;;;;;;;;3.30;99.90;;;;;;5074450;28;19973;-49
2022/03/09 07:18:00;;;;;;;;;;;3.00;99.90;;;;;;5074564;28;20026;-49
2022/03/09 07:20:25;;;;;;;;;;;2.80;99.90;;;;;;5074769;28;19928;-49
2022/03/09 07:22:51;;;;;;;;;;;2.80;99.90;;;;;;5076240;28;19928;-48
2022/03/09 07:25:17;;;;;;;;;;;2.70;99.90;;;;;;5083925;28;19921;-49
2022/03/09 07:27:42;;;;;;;;;;;2.70;99.90;;;;;;5075503;28;19927;-49
2022/03/09 07:30:08;;;;;;;;;;;2.70;99.90;;;;;;5072662;28;19998;-48
2022/03/09 07:32:34;;;;;;;;;;;2.70;99.90;;;;;;5050413;28;19930;-48
2022/03/09 07:34:59;;;;;;;;;;;2.80;99.90;;;;;;5050071;28;19920;-48
2022/03/09 07:37:25;;;;;;;;;;;2.80;99.90;;;;;;5070697;28;19972;-49
2022/03/09 07:39:50;;;;;;;;;;;2.90;99.90;;;;;;5071950;28;19921;-48
2022/03/09 07:42:16;;;;;;;;;;;3.00;99.90;;;;;;5068463;28;19920;-48
2022/03/09 07:44:41;;;;;;;;;;;3.10;99.90;;;;;;5067790;28;19920;-49
2022/03/09 07:47:07;;;;;;;;;;;3.20;99.90;;;;;;5073864;28;19954;-49
2022/03/09 07:49:33;;;;;;;;;;;3.30;99.90;;;;;;5069843;28;20011;-50
2022/03/09 07:51:59;;;;;;;;;;;3.30;99.90;;;;;;5073076;28;19924;-48
2022/03/09 07:54:25;;;;;;;;;;;3.40;99.90;;;;;;5062191;28;19920;-48
2022/03/09 07:56:50;;;;;;;;;;;3.50;99.90;;;;;;5071953;28;19921;-49
2022/03/09 07:59:16;;;;;;;;;;;3.60;99.90;;;;;;5051602;28;20346;-48
2022/03/09 08:01:41;;;;;;;;;;;3.70;99.90;;;;;;5063704;28;19943;-49
2022/03/09 08:04:07;;;;;;;;;;;3.90;99.90;;;;;;5057206;28;19939;-48
2022/03/09 08:06:33;;;;;;;;;;;4.00;99.90;;;;;;5064267;28;20337;-49
2022/03/09 08:08:59;;;;;;;;;;;4.10;99.90;;;;;;5058552;28;19921;-48
2022/03/09 08:11:24;;;;;;;;;;;4.20;99.90;;;;;;5070157;28;19920;-49
2022/03/09 08:13:50;;;;;;;;;;;4.40;99.90;;;;;;5059416;28;20374;-50
2022/03/09 08:16:15;;;;;;;;;;;4.40;99.90;;;;;;5053365;28;19925;-48
2022/03/09 08:18:41;;;;;;;;;;;4.50;99.90;;;;;;5060675;28;19920;-48
2022/03/09 08:21:06;;;;;;;;;;;4.70;99.90;;;;;;5064448;28;20382;-49
2022/03/09 08:23:32;;;;;;;;;;;4.80;99.90;;;;;;5064367;28;19925;-48
2022/03/09 08:25:57;;;;;;;;;;;4.90;99.90;;;;;;5067524;28;20413;-49
2022/03/09 08:28:22;;;;;;;;;;;5.10;99.90;;;;;;5059491;28;19921;-49
2022/03/09 08:30:48;;;;;;;;;;;5.20;97.50;;;;;;5073532;28;19920;-49
2022/03/09 08:33:14;;;;;;;;;;;5.40;98.00;;;;;;5063596;28;19971;-49
2022/03/09 08:35:40;;;;;;;;;;;5.50;95.30;;;;;;5071890;28;19962;-49
2022/03/09 08:38:05;;;;;;;;;;;5.60;95.50;;;;;;5055732;28;19956;-47
2022/03/09 08:40:31;;;;;;;;;;;5.70;91.60;;;;;;5059946;28;20293;-48
2022/03/09 08:42:56;;;;;;;;;;;5.90;91.20;;;;;;5056888;28;19925;-48
2022/03/09 08:45:22;;;;;;;;;;;;;;;;;;5057824;28;19974;-48
2022/03/09 08:47:48;;;;;;;;;;;6.00;85.90;;;;;;5068511;28;19920;-48
2022/03/09 08:50:13;;;;;;;;;;;6.20;86.60;;;;;;5058669;28;19968;-48
2022/03/09 08:52:39;;;;;;;;;;;6.30;86.40;;;;;;5052206;28;19967;-49
2022/03/09 08:55:05;;;;;;;;;;;6.40;86.90;;;;;;5068355;28;20003;-48
2022/03/09 08:57:31;;;;;;;;;;;6.50;84.20;;;;;;5067403;28;19963;-50
2022/03/09 08:59:57;;;;;;;;;;;6.70;82.00;;;;;;5058284;28;19920;-48
2022/03/09 09:02:23;;;;;;;;;;;6.80;79.90;;;;;;5069959;28;20018;-48
2022/03/09 09:04:49;;;;;;;;;;;6.80;80.30;;;;;;5065211;28;19963;-49
2022/03/09 09:07:14;;;;;;;;;;;7.10;75.70;;;;;;5054917;28;19964;-49
2022/03/09 09:09:40;;;;;;;;;;;7.00;75.90;;;;;;5051755;28;19925;-48
2022/03/09 09:12:06;;;;;;;;;;;7.20;74.70;;;;;;5050825;28;19920;-49
2022/03/09 09:14:31;;;;;;;;;;;7.20;72.50;;;;;;5045953;28;19924;-52
2022/03/09 09:16:57;;;;;;;;;;;7.30;71.60;;;;;;5062549;28;20054;-49
2022/03/09 09:19:23;;;;;;;;;;;7.40;69.40;;;;;;5049976;28;19920;-49
2022/03/09 09:21:48;;;;;;;;;;;7.50;69.90;;;;;;5053058;28;19964;-49
2022/03/09 09:24:14;;;;;;;;;;;7.60;71.60;;;;;;5046776;28;19926;-49
2022/03/09 09:26:40;;;;;;;;;;;7.60;67.70;;;;;;5077928;28;19920;-48
2022/03/09 09:29:06;;;;;;;;;;;7.70;67.60;;;;;;5076439;28;19943;-49
2022/03/09 09:31:32;;;;;;;;;;;7.70;69.30;;;;;;5080099;28;20067;-48
2022/03/09 09:33:58;;;;;;;;;;;7.90;66.80;;;;;;5060954;28;20373;-49
2022/03/09 09:36:23;;;;;;;;;;;7.90;68.50;;;;;;5077650;28;19960;-49
2022/03/09 09:38:49;;;;;;;;;;;8.00;66.60;;;;;;5075370;28;19920;-49
2022/03/09 09:41:18;;;;;;;;;;;8.10;66.70;;;;;;5075455;28;19986;-49
2022/03/09 09:43:45;;;;;;;;;;;8.20;65.90;;;;;;5072512;28;19928;-49
2022/03/09 09:46:11;;;;;;;;;;;8.20;66.20;;;;;;5077685;28;19924;-49
2022/03/09 09:48:37;;;;;;;;;;;8.40;66.20;;;;;;5072583;28;20394;-49
2022/03/09 09:51:03;;;;;;;;;;;8.40;65.90;;;;;;5075942;28;19920;-50
2022/03/09 09:53:30;;;;;;;;;;;8.50;65.50;;;;;;5065746;28;20292;-49
2022/03/09 09:55:57;;;;;;;;;;;8.60;63.90;;;;;;5051242;28;19920;-49
2022/03/09 09:58:23;;;;;;;;;;;8.70;63.60;;;;;;5049308;28;19932;-50
2022/03/09 10:00:48;;;;;;;;;;;8.70;64.70;;;;;;5053732;28;19942;-49
2022/03/09 10:03:14;;;;;;;;;;;8.90;64.80;;;;;;5050217;28;19921;-51
2022/03/09 10:05:39;;;;;;;;;;;9.00;65.50;;;;;;5045124;28;19921;-49
2022/03/09 10:08:05;;;;;;;;;;;9.00;63.80;;;;;;5032079;28;19920;-49
2022/03/09 10:10:31;;;;;;;;;;;9.10;62.60;;;;;;5031518;28;20318;-49
2022/03/09 10:13:16;;;;;;;;;;;9.10;62.10;;;;;;5049355;28;19921;-49
2022/03/09 10:15:42;;;;;;;;;;;9.30;63.20;;;;;;5047713;28;19928;-50
2022/03/09 10:18:26;;;;;;;;;;;9.30;61.20;;;;;;5050954;28;19921;-49
2022/03/09 10:20:51;;;;;;;;;;;9.40;62.40;;;;;;5053410;28;20007;-49
2022/03/09 10:23:17;;;;;;;;;;;9.50;62.80;;;;;;5032080;28;19967;-50
2022/03/09 10:25:46;;;;;;;;;;;9.60;61.80;;;;;;5051039;28;19927;-51
2022/03/09 10:28:12;;;;;;;;;;;9.70;61.60;;;;;;5051167;28;20054;-49
2022/03/09 10:30:39;;;;;;;;;;;9.70;60.30;;;;;;5054551;28;20236;-48
2022/03/09 10:33:05;;;;;;;;;;;9.80;60.00;;;;;;5042938;28;20408;-50
2022/03/09 10:35:31;;;;;;;;;;;9.80;59.60;;;;;;5047059;28;20074;-49
2022/03/09 10:37:57;;;;;;;;;;;9.90;59.10;;;;;;5040262;28;20085;-49
2022/03/09 10:40:24;;;;;;;;;;;10.00;58.10;;;;;;5034209;28;20028;-49
2022/03/09 10:42:49;;;;;;;;;;;10.10;58.10;;;;;;5044118;28;20016;-49
2022/03/09 10:45:17;;;;;;;;;;;10.20;59.60;;;;;;5047469;28;19997;-48
2022/03/09 10:47:46;;;;;;;;;;;10.30;59.10;;;;;;5051355;28;19924;-49
2022/03/09 10:50:13;;;;;;;;;;;10.30;57.10;;;;;;5038475;28;19927;-49
2022/03/09 10:52:42;;;;;;;;;;;10.30;55.90;;;;;;5049816;28;20010;-49
2022/03/09 10:55:21;;;;;;;;;;;10.40;57.30;;;;;;5052411;28;19953;-49
2022/03/09 10:57:46;;;;;;;;;;;10.40;55.60;;;;;;5056216;28;19920;-49
2022/03/09 11:00:12;;;;;;;;;;;10.50;56.10;;;;;;5054075;28;19929;-49
2022/03/09 11:02:47;;;;;;;;;;;10.60;56.90;;;;;;5063316;28;20358;-53
2022/03/09 11:05:13;;;;;;;;;;;10.70;56.90;;;;;;5062129;28;19930;-50
2022/03/09 11:07:38;;;;;;;;;;;10.80;57.80;;;;;;5038280;28;19925;-49
2022/03/09 11:10:05;;;;;;;;;;;10.80;56.90;;;;;;5067347;28;20258;-48
2022/03/09 11:12:31;;;;;;;;;;;10.90;57.20;;;;;;5070232;28;19964;-49
2022/03/09 11:14:57;;;;;;;;;;;10.90;55.70;;;;;;5046417;28;20263;-48
2022/03/09 11:17:23;;;;;;;;;;;11.00;55.60;;;;;;5058954;28;19971;-49
2022/03/09 11:19:48;;;;;;;;;;;11.00;54.70;;;;;;5047523;28;19952;-51
2022/03/09 11:22:14;;;;;;;;;;;11.00;54.80;;;;;;5062103;28;20271;-49
2022/03/09 11:24:40;;;;;;;;;;;11.10;55.10;;;;;;5069754;28;19932;-49
2022/03/09 11:27:07;;;;;;;;;;;11.00;54.80;;;;;;5071807;28;20011;-49
2022/03/09 11:29:35;;;;;;;;;;;11.20;54.30;;;;;;5059180;28;19959;-52
2022/03/09 11:32:01;;;;;;;;;;;11.20;53.70;;;;;;5073322;28;19924;-48
2022/03/09 11:34:32;;;;;;;;;;;11.30;55.00;;;;;;5038489;28;19928;-48
2022/03/09 11:36:59;;;;;;;;;;;11.20;55.90;;;;;;5052683;28;19928;-49
2022/03/09 11:39:25;;;;;;;;;;;11.10;54.00;;;;;;5053550;28;19971;-49
2022/03/09 11:42:09;;;;;;;;;;;11.20;55.20;;;;;;5056184;28;19964;-49
2022/03/09 11:44:35;;;;;;;;;;;11.40;55.60;;;;;;5054202;28;19937;-50
2022/03/09 11:47:03;;;;;;;;;;;11.30;53.60;;;;;;5053675;28;19936;-48
2022/03/09 11:49:41;;;;;;;;;;;11.40;54.40;;;;;;5054048;28;19921;-49
2022/03/09 11:52:08;;;;;;;;;;;11.50;54.20;;;;;;5053775;28;19927;-49
2022/03/09 11:54:44;;;;;;;;;;;11.50;53.60;;;;;;5053803;28;20478;-49
2022/03/09 11:57:10;;;;;;;;;;;11.50;52.10;;;;;;5030298;28;20344;-48
2022/03/09 11:59:36;;;;;;;;;;;11.50;53.00;;;;;;5053736;28;20007;-52
2022/03/09 12:02:14;;;;;;;;;;;11.60;52.60;;;;;;5054239;28;19968;-48
2022/03/09 12:04:39;;;;;;;;;;;11.60;53.90;;;;;;5053340;28;19972;-49
2022/03/09 12:07:05;;;;;;;;;;;11.70;53.30;;;;;;5050661;28;20011;-49
2022/03/09 12:09:51;;;;;;;;;;;11.80;52.30;;;;;;5009933;28;20016;-49
2022/03/09 12:12:16;;;;;;;;;;;11.90;52.50;;;;;;5040291;28;19926;-48
2022/03/09 12:15:01;;;;;;;;;;;11.90;51.40;;;;;;5053353;28;19976;-50
2022/03/09 12:17:27;;;;;;;;;;;11.80;51.20;;;;;;5045645;28;19998;-49
2022/03/09 12:20:12;;;;;;;;;;;11.80;51.60;;;;;;5044710;28;20341;-49
2022/03/09 12:22:55;;;;;;;;;;;12.00;52.40;;;;;;5042930;28;20382;-49
2022/03/09 12:25:34;;;;;;;;;;;11.90;50.60;;;;;;5043100;28;19969;-49
2022/03/09 12:28:18;;;;;;;;;;;12.00;50.50;;;;;;5038480;28;19943;-49
2022/03/09 12:30:47;;;;;;;;;;;12.10;50.80;;;;;;5047961;28;19920;-49
2022/03/09 12:33:35;;;;;;;;;;;12.10;51.10;;;;;;5050443;28;19920;-48
2022/03/09 12:36:14;;;;;;;;;;;12.30;50.60;;;;;;5052080;28;19921;-49
2022/03/09 12:38:41;;;;;;;;;;;12.20;50.40;;;;;;5034377;28;19925;-49
2022/03/09 12:41:42;;;;;;;;;;;12.40;51.10;;;;;;5052956;28;19920;-48
2022/03/09 12:44:07;;;;;;;;;;;12.40;49.10;;;;;;5009709;28;20339;-48
2022/03/09 12:46:34;;;;;;;;;;;12.40;50.20;;;;;;5048662;28;20023;-49
2022/03/09 12:49:02;;;;;;;;;;;12.50;49.80;;;;;;5053203;28;19921;-49
2022/03/09 12:51:28;;;;;;;;;;;12.50;48.90;;;;;;5047732;28;19928;-48
2022/03/09 12:53:53;;;;;;;;;;;12.50;49.10;;;;;;5052625;28;20247;-48
2022/03/09 12:56:20;;;;;;;;;;;12.50;48.90;;;;;;5053252;28;20015;-48
2022/03/09 12:58:46;;;;;;;;;;;12.60;49.70;;;;;;5064348;28;19927;-48
2022/03/09 13:01:13;;;;;;;;;;;12.60;48.60;;;;;;5034964;28;19920;-49
2022/03/09 13:03:42;;;;;;;;;;;12.70;49.80;;;;;;5064413;28;19924;-49
2022/03/09 13:06:24;;;;;;;;;;;12.70;48.80;;;;;;5039246;28;19925;-50
2022/03/09 13:08:49;;;;;;;;;;;13.00;48.90;;;;;;5055550;28;20295;-49
2022/03/09 13:11:28;;;;;;;;;;;12.80;48.80;;;;;;5041023;28;19928;-49
2022/03/09 13:13:54;;;;;;;;;;;12.90;47.80;;;;;;5035882;28;20007;-49
2022/03/09 13:16:22;;;;;;;;;;;12.90;47.60;;;;;;5034871;28;19955;-49
2022/03/09 13:18:47;;;;;;;;;;;13.00;48.30;;;;;;5031460;28;19967;-48
2022/03/09 13:21:13;;;;;;;;;;;13.10;47.10;;;;;;5052301;28;20384;-49
2022/03/09 13:23:42;;;;;;;;;;;13.30;48.30;;;;;;5045517;28;20286;-52
2022/03/09 13:26:12;;;;;;;;;;;13.30;47.90;;;;;;5016464;28;20342;-51
2022/03/09 13:28:38;;;;;;;;;;;13.30;45.50;;;;;;5028117;28;19920;-49
2022/03/09 13:31:03;;;;;;;;;;;13.20;45.60;;;;;;5030581;28;20059;-49
2022/03/09 13:33:29;;;;;;;;;;;13.30;45.80;;;;;;5050234;28;19943;-51
2022/03/09 13:35:54;;;;;;;;;;;13.30;47.10;;;;;;5050334;28;20282;-51
2022/03/09 13:38:24;;;;;;;;;;;13.30;45.10;;;;;;5050359;28;20378;-49
2022/03/09 13:40:50;;;;;;;;;;;13.40;47.10;;;;;;5050267;28;19927;-51
2022/03/09 13:43:16;;;;;;;;;;;13.40;46.80;;;;;;5037003;28;20443;-50
2022/03/09 13:45:41;;;;;;;;;;;13.40;45.80;;;;;;5036570;28;20036;-52
2022/03/09 13:48:18;;;;;;;;;;;13.50;46.20;;;;;;5040763;28;20351;-50
2022/03/09 13:50:48;;;;;;;;;;;13.60;46.30;;;;;;5050467;28;19944;-49
2022/03/09 13:53:14;;;;;;;;;;;13.50;45.50;;;;;;5042633;28;20264;-48
2022/03/09 13:55:43;;;;;;;;;;;13.60;44.40;;;;;;5068002;28;20409;-49
2022/03/09 13:58:10;;;;;;;;;;;13.60;46.80;;;;;;5053896;28;20260;-49
2022/03/09 14:00:37;;;;;;;;;;;13.60;46.00;;;;;;5057466;28;19921;-49
2022/03/09 14:03:10;;;;;;;;;;;13.60;45.60;;;;;;5052033;28;19921;-49
2022/03/09 14:05:37;;;;;;;;;;;13.60;44.10;;;;;;5051568;28;20250;-50
2022/03/09 14:08:03;;;;;;;;;;;13.80;45.80;;;;;;5051903;28;19925;-48
2022/03/09 14:10:32;;;;;;;;;;;13.80;45.90;;;;;;5054276;28;19943;-49
2022/03/09 14:13:05;;;;;;;;;;;13.80;44.30;;;;;;5070645;28;19993;-48
2022/03/09 14:15:31;;;;;;;;;;;13.90;45.20;;;;;;5055386;28;19927;-49
2022/03/09 14:18:00;;;;;;;;;;;13.90;44.70;;;;;;5050806;28;20284;-50
2022/03/09 14:20:26;;;;;;;;;;;14.00;45.50;;;;;;5055131;28;20339;-49
2022/03/09 14:22:52;;;;;;;;;;;13.80;44.90;;;;;;5047243;28;20012;-50